Weather reports worldwide

Advertisment
Exeter Airport No. 2, United Kingdom (3844): temperature & dewpoint: 19.03.2017 21:00:00 - 25.03.2017 21:00:00 (GMT)Exeter Airport No. 2, United Kingdom (3844): wind speed & gusts: 19.03.2017 21:00:00 - 25.03.2017 21:00:00 (GMT)Exeter Airport No. 2, United Kingdom (3844): wind direction: 19.03.2017 21:00:00 - 25.03.2017 21:00:00 (GMT)Exeter Airport No. 2, United Kingdom (3844): reduced air pressure: 19.03.2017 21:00:00 - 25.03.2017 21:00:00 (GMT)Exeter Airport No. 2, United Kingdom (3844): sunshine duration: 19.03.2017 21:00:00 - 25.03.2017 21:00:00 (GMT)Exeter Airport No. 2, United Kingdom (3844): precipitation: 19.03.2017 21:00:00 - 25.03.2017 21:00:00 (GMT)
Date & Time tt [°C] td [°C] ff [km/h] ff [kn] fx [km/h] fx [kn] dd ppp [hPa] sd [min] rr [mm]
25.03.2017 21:00:00 10,3 -0,7 18 10 - - NE 1023,1 0 0,0
25.03.2017 20:00:00 9,6 1,2 8 4 - - NE 1023,4 0 0,0
25.03.2017 19:00:00 10,6 2,0 8 4 - - NE 1023,2 0 0,0
25.03.2017 18:00:00 11,6 2,3 9 5 - - NE 1023,3 6 0,0
25.03.2017 17:00:00 13,0 2,8 16 9 - - NE 1023,8 30 0,0
25.03.2017 16:00:00 14,5 2,9 24 13 - - NE 1024,3 60 0,0
25.03.2017 15:00:00 15,1 2,5 26 14 48 26 ENE 1025,2 60 0,0
25.03.2017 14:00:00 14,2 3,2 16 9 - - NE 1026,2 60 0,0
25.03.2017 13:00:00 13,6 1,6 21 11 - - NE 1027,2 60 0,0
25.03.2017 12:00:00 13,1 1,8 11 6 - - NNE 1028,0 60 0,0
25.03.2017 11:00:00 11,4 5,2 11 6 - - NNE 1028,5 60 0,0
25.03.2017 10:00:00 9,6 4,2 13 7 - - NE 1029,2 60 0,0
25.03.2017 09:00:00 7,8 4,4 11 6 - - NNE 1029,6 60 0,0
25.03.2017 08:00:00 6,1 4,0 13 7 - - NE 1029,9 60 0,0
25.03.2017 07:00:00 4,1 2,9 8 4 - - NNE 1030,0 12 0,0
25.03.2017 06:00:00 3,6 2,2 5 3 - - NE 1030,1 0 0,0
25.03.2017 05:00:00 4,3 3,0 11 6 - - NNE 1030,0 0 0,0
25.03.2017 04:00:00 4,8 3,3 8 4 - - NE 1029,9 0 0,0
25.03.2017 03:00:00 5,7 3,7 13 7 - - NE 1030,0 0 0,0
25.03.2017 02:00:00 5,8 4,0 9 5 - - NE 1030,4 0 0,0
25.03.2017 01:00:00 6,8 4,5 15 8 - - NE 1030,8 0 0,0
25.03.2017 00:00:00 7,5 4,8 13 7 - - NE 1031,0 - 0,0
24.03.2017 23:00:00 7,6 4,9 11 6 - - N 1030,8 0 0,0
24.03.2017 22:00:00 7,1 4,5 8 4 - - NNE 1030,2 0 0,0
24.03.2017 21:00:00 8,4 5,5 9 5 - - NNE 1029,9 0 0,0
24.03.2017 20:00:00 8,4 5,5 9 5 - - N 1029,7 0 0,0
24.03.2017 19:00:00 8,9 5,8 8 4 - - NE 1029,1 0 0,0
24.03.2017 18:00:00 10,8 6,7 18 10 - - NE 1028,9 42 0,0
24.03.2017 17:00:00 10,9 6,6 18 10 - - NE 1028,1 48 0,0
24.03.2017 16:00:00 10,3 7,2 16 9 - - NE 1027,7 0 0,0
24.03.2017 15:00:00 9,6 6,6 15 8 - - NE 1028,0 0 0,0
24.03.2017 14:00:00 9,5 6,7 11 6 - - NE 1027,9 0 0,0
24.03.2017 13:00:00 9,0 6,4 13 7 - - NE 1028,4 0 0,0
24.03.2017 12:00:00 8,3 5,8 15 8 - - NE 1028,2 0 0,0
24.03.2017 11:00:00 7,7 5,3 18 10 - - ENE 1027,6 0 0,0
24.03.2017 10:00:00 7,1 5,2 16 9 - - NE 1027,2 0 0,0
24.03.2017 09:00:00 6,7 5,1 18 10 - - NE 1026,4 0 0,0
24.03.2017 08:00:00 6,6 5,2 18 10 - - NE 1025,3 0 0,4
24.03.2017 07:00:00 6,5 5,4 21 11 - - NE 1024,5 0 1,6
24.03.2017 06:00:00 6,5 5,4 16 9 - - NE 1023,6 0 0,8
24.03.2017 05:00:00 7,1 5,0 18 10 - - NE 1022,6 0 0,0
24.03.2017 04:00:00 7,3 4,8 21 11 - - NE 1021,8 0 0,0
24.03.2017 03:00:00 7,1 4,6 21 11 - - NE 1021,5 0 0,0
24.03.2017 02:00:00 7,0 4,2 22 12 - - NE 1020,9 0 0,0
24.03.2017 01:00:00 7,0 4,0 26 14 50 27 NE 1020,4 0 0,0
24.03.2017 00:00:00 7,4 3,9 26 14 54 29 NE 1019,8 - 0,0
23.03.2017 23:00:00 7,7 3,8 26 14 48 26 NE 1019,0 0 0,0
23.03.2017 22:00:00 8,2 4,0 29 16 55 30 NE 1018,5 0 0,0
23.03.2017 21:00:00 8,7 3,4 26 14 - - NE 1017,7 0 0,0
23.03.2017 20:00:00 9,0 3,6 31 17 50 27 NE 1016,6 0 0,0
23.03.2017 19:00:00 9,6 4,2 24 13 - - NE 1015,9 0 0,0
23.03.2017 18:00:00 10,1 4,7 21 11 - - NE 1015,2 0 0,0
23.03.2017 17:00:00 9,7 5,5 15 8 - - NE 1014,5 0 0,0
23.03.2017 16:00:00 8,8 5,8 15 8 - - NNE 1013,4 0 0,0
23.03.2017 15:00:00 7,3 5,9 9 5 - - NNE 1013,7 0 1,2
23.03.2017 14:00:00 7,3 4,9 16 9 - - NE 1013,9 0 0,2
23.03.2017 13:00:00 8,0 5,4 18 10 - - NE 1013,7 0 0,4
23.03.2017 12:00:00 8,1 5,8 24 13 - - ENE 1013,4 0 0,0
23.03.2017 11:00:00 6,9 5,6 13 7 - - NE 1012,8 0 0,0
23.03.2017 10:00:00 5,8 5,0 15 8 - - NE 1012,9 0 0,0
23.03.2017 09:00:00 5,2 4,4 13 7 - - NNE 1012,8 0 0,0
23.03.2017 08:00:00 4,6 4,2 15 8 - - NNE 1012,2 0 0,2
23.03.2017 07:00:00 2,7 2,7 9 5 - - N 1012,1 0 0,0
23.03.2017 06:00:00 0,6 0,6 2 1 - - N 1011,5 0 0,0
23.03.2017 05:00:00 0,5 0,4 4 2 - - NNE 1011,1 0 0,0
23.03.2017 04:00:00 -0,1 -0,1 4 2 - - N 1011,0 0 0,0
23.03.2017 03:00:00 0,4 0,4 5 3 - - N 1010,9 0 0,0
23.03.2017 02:00:00 0,3 0,3 5 3 - - N 1010,8 0 0,0
23.03.2017 01:00:00 -0,4 -0,4 2 1 - - NE 1010,4 0 0,0
23.03.2017 00:00:00 -0,4 -0,4 2 1 - - NNE 1010,2 - 0,0
22.03.2017 23:00:00 0,0 -0,1 4 2 - - NE 1009,7 0 0,0
22.03.2017 22:00:00 0,6 0,4 2 1 - - E 1009,5 0 0,0
22.03.2017 21:00:00 1,9 1,6 2 1 - - SSW 1008,8 0 0,0
22.03.2017 20:00:00 2,2 0,8 2 1 - - NNE 1007,9 0 0,0
22.03.2017 19:00:00 5,9 3,9 8 4 - - NNW 1007,3 18 0,0
22.03.2017 18:00:00 7,7 3,7 8 4 - - SE 1006,4 36 0,0
22.03.2017 17:00:00 8,0 3,6 8 4 - - E 1005,5 36 0,4
22.03.2017 16:00:00 6,3 4,4 11 6 - - W 1005,4 0 1,0
22.03.2017 15:00:00 8,0 4,1 9 5 - - ESE 1004,8 24 0,0
22.03.2017 14:00:00 8,0 3,8 5 3 - - E 1004,4 18 0,0
22.03.2017 13:00:00 7,1 3,9 5 3 - - NE 1004,2 12 0,6
22.03.2017 12:00:00 6,4 4,2 11 6 - - S 1003,6 24 1,0
22.03.2017 11:00:00 8,1 5,4 11 6 - - S 1002,7 0 0,0
22.03.2017 10:00:00 8,0 4,6 9 5 - - SW 1002,1 24 0,2
22.03.2017 09:00:00 5,6 4,3 9 5 - - SW 1001,6 0 0,2
22.03.2017 08:00:00 5,3 4,7 8 4 - - S 1000,8 0 0,0
22.03.2017 07:00:00 4,8 4,4 8 4 - - S 1000,1 0 0,0
22.03.2017 06:00:00 5,2 4,8 5 3 - - S 999,5 0 0,2
22.03.2017 05:00:00 4,9 4,4 5 3 - - S 999,3 0 0,2
22.03.2017 04:00:00 5,0 4,3 8 4 - - S 999,5 0 0,6
22.03.2017 03:00:00 5,1 4,1 13 7 - - SSW 1000,2 0 1,4
22.03.2017 02:00:00 5,2 4,0 21 11 - - SSW 1001,0 0 3,6
22.03.2017 01:00:00 6,2 5,1 21 11 63 34 S 1001,4 0 2,4
22.03.2017 00:00:00 7,8 5,3 34 18 55 30 S 1002,2 - 0,0
21.03.2017 23:00:00 6,1 5,0 28 15 61 33 S 1003,6 0 1,8
21.03.2017 22:00:00 7,4 5,8 22 12 59 32 S 1004,5 0 1,0
21.03.2017 21:00:00 8,5 4,5 28 15 46 25 S 1005,3 0 0,0
21.03.2017 20:00:00 6,7 4,3 15 8 - - S 1006,6 0 0,2
21.03.2017 19:00:00 5,4 4,1 8 4 48 26 SW 1007,5 0 2,8
21.03.2017 18:00:00 8,3 4,3 15 8 - - SSW 1007,7 0 0,0
21.03.2017 17:00:00 7,5 4,0 18 10 - - S 1008,6 12 0,0
21.03.2017 16:00:00 6,8 4,4 21 11 - - SSW 1009,3 6 0,6
21.03.2017 15:00:00 7,7 3,7 16 9 - - SSW 1009,8 18 0,4
21.03.2017 14:00:00 6,9 3,6 29 16 54 29 WSW 1010,8 6 0,2
21.03.2017 13:00:00 10,0 0,2 34 18 - - SW 1010,8 42 0,0
21.03.2017 12:00:00 8,1 2,1 34 18 46 25 WSW 1011,4 18 0,0
21.03.2017 11:00:00 9,0 0,4 28 15 - - W 1011,4 60 0,0
21.03.2017 10:00:00 8,1 2,0 24 13 - - WSW 1011,5 60 0,0
21.03.2017 09:00:00 7,5 1,9 22 12 - - W 1011,5 60 0,0
21.03.2017 08:00:00 5,1 2,2 13 7 - - WSW 1011,2 60 0,0
21.03.2017 07:00:00 2,3 0,8 11 6 - - SW 1010,8 6 0,0
21.03.2017 06:00:00 1,6 0,4 11 6 - - SW 1010,5 0 0,0
21.03.2017 05:00:00 2,3 -0,2 11 6 - - WSW 1010,2 0 0,0
21.03.2017 04:00:00 2,6 0,3 9 5 - - W 1009,7 0 0,0
21.03.2017 03:00:00 3,9 1,7 16 9 - - W 1009,2 0 0,0
21.03.2017 02:00:00 5,7 2,0 16 9 - - W 1009,0 0 0,0
21.03.2017 01:00:00 6,3 3,1 21 11 - - W 1008,5 0 0,0
21.03.2017 00:00:00 5,7 2,6 18 10 - - W 1008,1 - 0,0
20.03.2017 23:00:00 6,4 3,9 16 9 48 26 W 1007,9 0 0,2
20.03.2017 22:00:00 6,8 4,5 15 8 - - WSW 1007,3 0 0,0
20.03.2017 21:00:00 8,0 5,1 13 7 - - WSW 1007,1 0 0,0
20.03.2017 20:00:00 9,0 4,8 13 7 - - W 1006,7 0 0,0
20.03.2017 19:00:00 9,7 5,1 18 10 - - W 1006,1 0 0,0
20.03.2017 18:00:00 10,1 5,3 11 6 - - W 1005,5 12 0,0
20.03.2017 17:00:00 11,4 6,0 18 10 - - WNW 1005,0 42 0,0
20.03.2017 16:00:00 11,5 6,7 18 10 - - WNW 1004,6 48 0,0
20.03.2017 15:00:00 10,3 7,1 22 12 - - WNW 1004,4 18 0,0
20.03.2017 14:00:00 10,7 8,0 22 12 - - W 1004,1 6 0,0
20.03.2017 13:00:00 10,2 8,7 18 10 57 31 W 1004,0 6 0,8
20.03.2017 12:00:00 13,1 10,5 37 20 57 31 SW 1002,6 6 0,2
20.03.2017 11:00:00 11,9 9,6 28 15 - - SW 1003,1 0 0,0
20.03.2017 10:00:00 12,0 8,5 28 15 48 26 SW 1003,7 0 0,0
20.03.2017 09:00:00 11,8 8,9 29 16 46 25 SW 1004,4 0 0,0
20.03.2017 08:00:00 11,8 9,5 26 14 - - SW 1004,7 0 0,0
20.03.2017 07:00:00 11,4 10,0 18 10 - - SSW 1005,2 0 0,0
20.03.2017 06:00:00 11,4 9,9 24 13 - - SW 1005,6 0 0,0
20.03.2017 05:00:00 11,5 10,0 21 11 - - SW 1005,9 0 0,0
20.03.2017 04:00:00 11,5 9,9 26 14 - - SW 1006,0 0 0,0
20.03.2017 03:00:00 11,2 9,8 22 12 - - SW 1006,5 0 0,0
20.03.2017 02:00:00 11,2 10,1 18 10 - - SSW 1007,6 0 0,0
20.03.2017 01:00:00 11,2 10,0 18 10 - - SSW 1008,2 0 0,0
20.03.2017 00:00:00 11,3 10,3 18 10 - - SSW 1008,7 - 0,0
19.03.2017 23:00:00 11,5 10,0 15 8 - - SSW 1009,3 0 0,0
19.03.2017 22:00:00 11,5 10,0 13 7 - - SSW 1009,6 0 0,0
19.03.2017 21:00:00 11,5 10,1 15 8 - - SSW 1010,2 0 0,0

tt = temperature
td = dewpoint
ff = wind speed
fx = gusts
dd = wind direction
ppp = reduced air pressure
sd = sunshine duration
rr = precipitation

Next stations